Norris, Georgia
Current Conditions -  °F | °C
As of 9:55 AM on Thursday 30 Oct 2014 (Local Time) from KHQU Reporting Station
Clear Clear  
Wind Chill: 58°   Ceiling: Unl
Heat Index: 58°   Visibility: 10mi
Dew Point: 53°   Wind: 5mph
Humidity: 82%   Direction: 360°N
Pressure: 30.1"   Gusts: NA
Location:  33.3862°N, 82.5904°W
Report Text: KHQU 301355Z AUTO 36004KT 10SM CLR 15/12 A3010 RMK AO1 T01460116
Loading
Personal Weather Stations






























Interactive Weather Map
Tropical Storm Tracking
New forecast layout! Learn more

10-Day Weather Forecast

Advertisements
Track Severe Weather on mobile